熊本 の空港の天気 - METARとTAF

熊本空港 ( RJFT / KMJ ) - 熊本県益城町
飛行場実況気象(Metar)
観測時間10/17 21:00 JST (10/17 12:00 UTC)
風向・風速北東 8m/s
視程10km以上
天気現象
少しの雲 雲底高度 460m
全天の8割程度の雲 雲底高度 1220m
全天の8割程度の雲 雲底高度 1520m
気温17℃
湿度83%
気圧1019hPa
METARRJFT 171200Z 05015KT 9999 FEW015 BKN040 BKN050 17/14 Q1019
過去の天気等 Google飛行場航空写真 Wunderground天気予報

過去48時間のMETAR

飛行場予報(TAF)
発表時間: 10/17 20:07 JST (10/17 11:07 UTC)
予報対象時間: 17日21時 JST ~ 19日3時 JST
風向・風速東北東 7m/s
視程10km以上
少しの雲 雲底高度 300m
全天の4割程度の雲 雲底高度 910m
全天の8割程度の雲 雲底高度 1,370m
18日15時 JST ~ 18日18時 JST に一時的に
視程4,000m
天気現象弱いしゅう雨 もや
18日18時 JST ~ 18日24時 JST に一時的に
視程3,000m
天気現象しゅう雨 もや
19日0時 JST ~ 19日3時 JST に一時的に
視程4,000m
天気現象弱いしゅう雨 もや
TAF RJFT 171107Z 1712/1818 06014KT 9999 FEW010 SCT030 BKN045
TEMPO 1806/1809 4000 -SHRA BR
TEMPO 1809/1815 3000 SHRA BR
TEMPO 1815/1818 4000 -SHRA BR
日本の空港のMETAR・TAFへのリンク

RJTT 東京国際空港
RJAA 新東京国際空港
RJBB 関西国際空港
RJOO 大阪空港
RJGG 中部国際空港
RJCC 新千歳空港
RJFF 福岡空港
ROAH 那覇空港


RJEC 旭川空港
RJCH 函館空港
RJCK 釧路空港
RJCM 女満別空港
RJCB 帯広空港
RJSA 青森空港
RJSS 仙台空港
RJSK 秋田空港
RJSF 福島空港
RJAH 茨城空港
RJSN 新潟空港
RJNT 富山空港
RJNK 小松飛行場
RJNS 静岡空港
RJOH 美保飛行場
RJOC 出雲空港
RJOB 岡山空港
RJOA 広島空港
RJOI 岩国飛行場
RJOT 高松空港
RJOM 松山空港
RJOK 高知空港
RJFR 北九州空港
RJFT 熊本空港
RJFU 長崎空港
RJFS 佐賀空港
RJFO 大分空港
RJFM 宮崎空港
RJFK 鹿児島空港
ROIG 石垣島空港
RJTY 横田飛行場
ROTM 普天間飛行場
RODN 嘉手納飛行場